x

Diamond Shoals (41025) Wave Buoy

8:50pm - Sun 26th Apr 2015 All times are EDT. -4 hours from GMT.

  • Sig Wave height 7.2ft
  • Swell Direction
  • Peak Period 9s
  • Average Period 7s
  • Wind
    20mph, 25mph gusts
  • Sea Temp 78°f
  • 空気 Temp 56°f
  • Sea Pressure 1005.2mb
  • Diamond Shoals
  • Diamond Shoals

More Historic Weather Station data

Upgrade to MSW Pro to gain access to the past 30 days of data for over 8000 Wavebouys and Weather Stations around the globe.

Join Pro

Comparision Forecast

View Surf forecast
   
Sun 04/26 8:50pm 7ft 9s 7s 20 25 mph 1005.2mb 78f 56f
7:50pm 7ft 10s 7s 25 29 mph 1004.6mb 78f 57f
6:50pm 7.5ft 10s 7s 25 31 mph 1004mb 78f 56f
5:50pm 8ft 10s 7s 25 29 mph 1003.6mb 77f 55f
4:50pm 7.5ft 8s 7s 27 34 mph 1002.9mb 76f 55f
3:50pm 7ft 7s 6s 27 34 mph 1002.6mb 76f 56f
2:50pm 7ft 8s 6s 29 36 mph 1002mb 76f 55f
1:50pm 6ft 8s 6s 27 34 mph 1001.6mb 76f 57f
12:50pm 5ft 8s 6s 25 29 mph 1001.4mb 75f 58f
11:50am 5ft 8s 6s 25 29 mph 1001.8mb 72f 58f
10:50am 4.5ft 7s 6s 18 20 mph 1001.4mb 73f 60f
9:50am 4ft 8s 6s 16 20 mph 1000.6mb 73f 62f
8:50am 3.5ft 6s 5s 13 16 mph 1000.8mb 68f 61f
7:50am 4ft 7s 5s 16 18 mph 1000.5mb 68f 60f
6:50am 4ft 8s 5s 18 22 mph 1000.3mb 68f 60f
5:50am 3.5ft 8s 5s 16 20 mph 1000.1mb 69f 61f
4:50am 4.5ft 7s 5s 16 20 mph 1000.2mb 72f 60f
3:50am 4ft 7s 5s 20 27 mph 1000.2mb 73f 60f
2:50am 4.5ft 7s 6s 18 20 mph 999.7mb 74f 62f
1:50am 4.5ft 7s 6s 13 18 mph 1000.4mb 75f 65f
12:50am 4.5ft 7s 6s 11 16 mph 1000.1mb 76f 66f
Sat 04/25 11:50pm 4ft 6s 5s 9 11 mph 1000.6mb 76f 66f
10:50pm 4ft 6s 5s 2 7 mph 1001.1mb 74f 67f
9:50pm 3ft 8s 6s 9 11 mph 1002.9mb 75f 63f
8:50pm 3ft 6s 5s 2 4 mph 1004.6mb 70f 61f
7:50pm 3ft 8s 4s 2 4 mph 1005.7mb 70f 62f
6:50pm 3ft 9s 4s 7 11 mph 1006.5mb 70f 63f
5:50pm 3ft 9s 4s 11 16 mph 1007.9mb 70f 64f
4:50pm 3ft 9s 5s 11 16 mph 1007.8mb 70f 65f
3:50pm 2.5ft 9s 5s 18 20 mph 1008.3mb 72f 66f
2:50pm 2.5ft 8s 5s 7 9 mph 1010.2mb 72f 65f
1:50pm 3ft 10s 5s 11 13 mph 1011.7mb 72f 64f
12:50pm 3ft 8s 5s 11 13 mph 1012.4mb 72f 63f
11:50am 3ft 8s 5s 13 16 mph 1013.4mb 73f 63f
10:50am 3.5ft 8s 5s 13 16 mph 1013.6mb 72f 62f
9:50am 3.5ft 8s 4s 18 22 mph 1013.6mb 71f 64f
8:50am 3.5ft 8s 5s 16 18 mph 1013.2mb 71f 65f
7:50am 3.5ft 9s 5s 18 22 mph 1013.7mb 69f 65f
6:50am 3.5ft 8s 5s 18 20 mph 1013.4mb 70f 65f
5:50am 4ft 9s 5s 20 22 mph 1013.1mb 70f 64f
4:50am 4ft 10s 5s 16 20 mph 1013.4mb 71f 65f
3:50am 4ft 8s 5s 18 20 mph 1013.4mb 72f 65f
2:50am 4ft 9s 5s 18 20 mph 1013.5mb 72f 64f
1:50am 4.5ft 9s 5s 16 20 mph 1014.2mb 73f 64f
12:50am 4.5ft 10s 6s 13 18 mph 1014.8mb 73f 65f
Fri 04/24 11:50pm 5ft 10s 6s 16 22 mph 1015.2mb 73f 64f
10:50pm 5ft 9s 7s 9 13 mph 1015.5mb 73f 62f
9:50pm 5ft 9s 7s 4 11 mph 1015.6mb 73f 60f
8:50pm 5.5ft 9s 7s 4 7 mph 1015.2mb 73f 59f
7:50pm 5ft 8s 7s 2 4 mph 1015mb 73f 58f
6:50pm 4.5ft 8s 6s 2 7 mph 1015mb 74f 57f
5:50pm 4.5ft 8s 6s 2
mph
1015.1mb 74f 57f
4:50pm 4.5ft 8s 6s 4 9 mph 1015.1mb 74f 56f
3:50pm 4.5ft 6s 6s 7 11 mph 1015.2mb 74f 55f
2:50pm 4.5ft 6s 6s 9 13 mph 1015.5mb 73f 55f
1:50pm 4.5ft 6s 6s 13 16 mph 1015.9mb 73f 55f
12:50pm 4.5ft 6s 6s 13 18 mph 1016.2mb 73f 55f
11:50am 5ft 6s 5s 18 25 mph 1016.1mb 73f 55f
10:50am 5ft 6s 6s 18 25 mph 1016mb 73f 55f
9:50am 5.5ft 6s 6s 20 25 mph 1015.3mb 73f 56f
8:50am 5.5ft 6s 6s 25 29 mph 1014.9mb 73f 57f
7:50am 6ft 6s 5s 22 29 mph 1014.6mb 72f 57f
6:50am 6ft 6s 5s 27 31 mph 1013.3mb 72f 59f
5:50am 5ft 4s 5s 31 38 mph 1012.2mb 71f 59f
4:50am 4ft 10s 5s 29 34 mph 1010.9mb 71f 61f
3:50am 4.5ft 9s 6s 20 29 mph 1010.6mb 71f 64f
2:50am 4ft 11s 7s 16 18 mph 1010.4mb 72f 65f
1:50am 4ft 14s 7s 11 13 mph 1010.4mb 72f 65f
12:50am 4.5ft 11s 7s 9 11 mph 1010.9mb 73f 64f
Thu 04/23 11:50pm 4.5ft 9s 7s 7 11 mph 1011mb 73f 64f
10:50pm 4.5ft 8s 7s 4 9 mph 1011.6mb 74f 64f
9:50pm 5ft 8s 8s 7 11 mph 1011.7mb 74f 64f
8:50pm 4.5ft 8s 7s 9 13 mph 1011.7mb 74f 63f
7:50pm 4.5ft 8s 7s 13 18 mph 1011mb 74f 63f
6:50pm 4.5ft 8s 7s 13 20 mph 1010.8mb 74f 63f
5:50pm 4ft 7s 7s 9 13 mph 1010.9mb 74f 61f
4:50pm 4ft 12s 6s 4 9 mph 1010.8mb 74f 60f
3:50pm 3.5ft 6s 6s 7 9 mph 1011mb 74f 59f
2:50pm 4.5ft 6s 6s 4 9 mph 1011.7mb 74f 58f
1:50pm 5ft 6s 6s 11 16 mph 1012.4mb 73f 57f
12:50pm 5ft 6s 6s 18 22 mph 1012.4mb 73f 56f
11:50am 6ft 6s 5s 20 27 mph 1012.7mb 73f 57f
10:50am 6ft 6s 6s 22 27 mph 1012.5mb 72f 57f
9:50am 6ft 6s 5s 25 31 mph 1011.6mb 72f 58f
8:50am 6ft 7s 5s 25 31 mph 1011mb 73f 60f
7:50am 5ft 7s 5s 22 27 mph 1010.1mb 73f 62f
6:50am 5.5ft 7s 5s 18 20 mph 1009.4mb 73f 62f
5:50am 6.5ft 7s 5s 25 29 mph 1007.8mb 74f 69f
4:50am 6ft 6s 5s 27 34 mph 1007.3mb 74f 70f
3:50am 7ft 7s 5s 29 36 mph 1006.9mb 72f 71f
2:50am 6.5ft 7s 5s 31 36 mph 1006.9mb 71f 71f